sensor_id;sensor_type;location;lat;lon;timestamp;temperature;humidity
3528;DHT22;1778;47.966;7.854;2023-04-03T00:00:05;6.10;99.90
3528;DHT22;1778;47.966;7.854;2023-04-03T00:01:06;6.20;99.90
3528;DHT22;1778;47.966;7.854;2023-04-03T00:02:08;6.10;99.90
3528;DHT22;1778;47.966;7.854;2023-04-03T00:03:09;6.10;99.90
3528;DHT22;1778;47.966;7.854;2023-04-03T00:04:11;6.10;99.90
3528;DHT22;1778;47.966;7.854;2023-04-03T00:05:13;6.10;99.90
3528;DHT22;1778;47.966;7.854;2023-04-03T00:06:14;6.10;99.90
3528;DHT22;1778;47.966;7.854;2023-04-03T00:07:16;6.10;99.90
3528;DHT22;1778;47.966;7.854;2023-04-03T00:08:18;6.10;99.90
3528;DHT22;1778;47.966;7.854;2023-04-03T00:09:19;6.10;99.90
3528;DHT22;1778;47.966;7.854;2023-04-03T00:10:21;6.10;99.90
3528;DHT22;1778;47.966;7.854;2023-04-03T00:11:22;6.10;99.90
3528;DHT22;1778;47.966;7.854;2023-04-03T00:12:24;6.10;99.90
3528;DHT22;1778;47.966;7.854;2023-04-03T00:13:26;6.10;99.90
3528;DHT22;1778;47.966;7.854;2023-04-03T00:14:27;6.10;99.90
3528;DHT22;1778;47.966;7.854;2023-04-03T00:15:29;6.10;99.90
3528;DHT22;1778;47.966;7.854;2023-04-03T00:16:30;6.10;99.90
3528;DHT22;1778;47.966;7.854;2023-04-03T00:17:32;6.20;99.90
3528;DHT22;1778;47.966;7.854;2023-04-03T00:18:34;6.20;99.90
3528;DHT22;1778;47.966;7.854;2023-04-03T00:19:35;6.20;99.90
3528;DHT22;1778;47.966;7.854;2023-04-03T00:20:37;6.20;99.90
3528;DHT22;1778;47.966;7.854;2023-04-03T00:21:39;6.10;99.90
3528;DHT22;1778;47.966;7.854;2023-04-03T00:22:41;6.10;99.90
3528;DHT22;1778;47.966;7.854;2023-04-03T00:23:42;6.00;99.90
3528;DHT22;1778;47.966;7.854;2023-04-03T00:24:44;6.00;99.90
3528;DHT22;1778;47.966;7.854;2023-04-03T00:25:45;6.10;99.90
3528;DHT22;1778;47.966;7.854;2023-04-03T00:26:47;6.00;99.90
3528;DHT22;1778;47.966;7.854;2023-04-03T00:27:49;6.00;99.90
3528;DHT22;1778;47.966;7.854;2023-04-03T00:28:51;6.00;99.90
3528;DHT22;1778;47.966;7.854;2023-04-03T00:29:52;5.90;99.90
3528;DHT22;1778;47.966;7.854;2023-04-03T00:30:54;5.90;99.90
3528;DHT22;1778;47.966;7.854;2023-04-03T00:31:55;5.90;99.90
3528;DHT22;1778;47.966;7.854;2023-04-03T00:32:57;5.90;99.90
3528;DHT22;1778;47.966;7.854;2023-04-03T00:33:59;5.90;99.90
3528;DHT22;1778;47.966;7.854;2023-04-03T00:35:01;5.90;99.90
3528;DHT22;1778;47.966;7.854;2023-04-03T00:36:08;6.00;99.90
3528;DHT22;1778;47.966;7.854;2023-04-03T00:37:10;6.00;99.90
3528;DHT22;1778;47.966;7.854;2023-04-03T00:38:12;5.90;99.90
3528;DHT22;1778;47.966;7.854;2023-04-03T00:39:13;5.90;99.90
3528;DHT22;1778;47.966;7.854;2023-04-03T00:40:16;5.80;99.90
3528;DHT22;1778;47.966;7.854;2023-04-03T00:41:17;5.80;99.90
3528;DHT22;1778;47.966;7.854;2023-04-03T00:42:19;5.90;99.90
3528;DHT22;1778;47.966;7.854;2023-04-03T00:43:24;5.90;99.90
3528;DHT22;1778;47.966;7.854;2023-04-03T00:45:39;5.90;99.90
3528;DHT22;1778;47.966;7.854;2023-04-03T00:46:41;5.90;99.90
3528;DHT22;1778;47.966;7.854;2023-04-03T00:47:43;5.80;99.90
3528;DHT22;1778;47.966;7.854;2023-04-03T00:48:47;5.90;99.90
3528;DHT22;1778;47.966;7.854;2023-04-03T00:49:50;5.90;99.90
3528;DHT22;1778;47.966;7.854;2023-04-03T00:50:52;5.90;99.90
3528;DHT22;1778;47.966;7.854;2023-04-03T00:51:54;5.80;99.90
3528;DHT22;1778;47.966;7.854;2023-04-03T00:52:57;5.80;99.90
3528;DHT22;1778;47.966;7.854;2023-04-03T00:54:02;5.80;99.90
3528;DHT22;1778;47.966;7.854;2023-04-03T00:55:08;5.80;99.90
3528;DHT22;1778;47.966;7.854;2023-04-03T00:56:13;5.80;99.90
3528;DHT22;1778;47.966;7.854;2023-04-03T00:57:16;5.80;99.90
3528;DHT22;1778;47.966;7.854;2023-04-03T00:58:20;5.80;99.90
3528;DHT22;1778;47.966;7.854;2023-04-03T00:59:31;5.90;99.90
3528;DHT22;1778;47.966;7.854;2023-04-03T01:00:36;5.90;99.90
3528;DHT22;1778;47.966;7.854;2023-04-03T01:01:39;5.90;99.90
3528;DHT22;1778;47.966;7.854;2023-04-03T01:02:41;5.90;99.90
3528;DHT22;1778;47.966;7.854;2023-04-03T01:03:44;5.90;99.90
3528;DHT22;1778;47.966;7.854;2023-04-03T01:04:47;5.90;99.90
3528;DHT22;1778;47.966;7.854;2023-04-03T01:05:49;5.80;99.90
3528;DHT22;1778;47.966;7.854;2023-04-03T01:06:51;5.80;99.90
3528;DHT22;1778;47.966;7.854;2023-04-03T01:07:54;5.80;99.90
3528;DHT22;1778;47.966;7.854;2023-04-03T01:08:56;5.90;99.90
3528;DHT22;1778;47.966;7.854;2023-04-03T01:10:01;5.90;99.90
3528;DHT22;1778;47.966;7.854;2023-04-03T01:11:03;5.90;99.90
3528;DHT22;1778;47.966;7.854;2023-04-03T01:12:24;5.90;99.90
3528;DHT22;1778;47.966;7.854;2023-04-03T01:13:29;5.90;99.90
3528;DHT22;1778;47.966;7.854;2023-04-03T01:14:31;5.90;99.90
3528;DHT22;1778;47.966;7.854;2023-04-03T01:15:33;5.90;99.90
3528;DHT22;1778;47.966;7.854;2023-04-03T01:16:36;5.80;99.90
3528;DHT22;1778;47.966;7.854;2023-04-03T01:17:42;5.70;99.90
3528;DHT22;1778;47.966;7.854;2023-04-03T01:18:45;5.70;99.90
3528;DHT22;1778;47.966;7.854;2023-04-03T01:19:49;5.60;99.90
3528;DHT22;1778;47.966;7.854;2023-04-03T01:22:23;5.60;99.90
3528;DHT22;1778;47.966;7.854;2023-04-03T01:24:46;5.60;99.90
3528;DHT22;1778;47.966;7.854;2023-04-03T01:25:54;5.60;99.90
3528;DHT22;1778;47.966;7.854;2023-04-03T01:26:56;5.70;99.90
3528;DHT22;1778;47.966;7.854;2023-04-03T01:27:59;5.70;99.90
3528;DHT22;1778;47.966;7.854;2023-04-03T01:29:02;5.80;99.90
3528;DHT22;1778;47.966;7.854;2023-04-03T01:30:04;5.70;99.90
3528;DHT22;1778;47.966;7.854;2023-04-03T01:32:12;5.70;99.90
3528;DHT22;1778;47.966;7.854;2023-04-03T01:33:15;5.70;99.90
3528;DHT22;1778;47.966;7.854;2023-04-03T01:34:17;5.70;99.90
3528;DHT22;1778;47.966;7.854;2023-04-03T01:35:19;5.80;99.90
3528;DHT22;1778;47.966;7.854;2023-04-03T01:36:29;5.80;99.90
3528;DHT22;1778;47.966;7.854;2023-04-03T01:37:31;5.80;99.90
3528;DHT22;1778;47.966;7.854;2023-04-03T01:38:33;5.70;99.90
3528;DHT22;1778;47.966;7.854;2023-04-03T01:39:36;5.70;99.90
3528;DHT22;1778;47.966;7.854;2023-04-03T01:40:37;5.70;99.90
3528;DHT22;1778;47.966;7.854;2023-04-03T01:41:39;5.70;99.90
3528;DHT22;1778;47.966;7.854;2023-04-03T01:43:10;5.70;99.90
3528;DHT22;1778;47.966;7.854;2023-04-03T01:44:11;5.80;99.90
3528;DHT22;1778;47.966;7.854;2023-04-03T01:45:13;5.80;99.90
3528;DHT22;1778;47.966;7.854;2023-04-03T01:46:18;5.80;99.90
3528;DHT22;1778;47.966;7.854;2023-04-03T01:47:22;5.80;99.90
3528;DHT22;1778;47.966;7.854;2023-04-03T01:48:24;5.90;99.90
3528;DHT22;1778;47.966;7.854;2023-04-03T01:49:25;5.90;99.90
3528;DHT22;1778;47.966;7.854;2023-04-03T01:50:28;5.90;99.90
3528;DHT22;1778;47.966;7.854;2023-04-03T01:51:30;5.90;99.90
3528;DHT22;1778;47.966;7.854;2023-04-03T01:52:32;6.00;99.90
3528;DHT22;1778;47.966;7.854;2023-04-03T01:53:34;5.90;99.90
3528;DHT22;1778;47.966;7.854;2023-04-03T01:54:35;5.90;99.90
3528;DHT22;1778;47.966;7.854;2023-04-03T01:55:37;5.90;99.90
3528;DHT22;1778;47.966;7.854;2023-04-03T01:56:39;5.90;99.90
3528;DHT22;1778;47.966;7.854;2023-04-03T01:57:41;5.90;99.90
3528;DHT22;1778;47.966;7.854;2023-04-03T01:58:43;5.90;99.90
3528;DHT22;1778;47.966;7.854;2023-04-03T01:59:45;5.90;99.90
3528;DHT22;1778;47.966;7.854;2023-04-03T02:00:47;5.90;99.90
3528;DHT22;1778;47.966;7.854;2023-04-03T02:01:49;5.90;99.90
3528;DHT22;1778;47.966;7.854;2023-04-03T02:02:50;5.90;99.90
3528;DHT22;1778;47.966;7.854;2023-04-03T02:03:52;5.90;99.90
3528;DHT22;1778;47.966;7.854;2023-04-03T02:04:54;5.90;99.90
3528;DHT22;1778;47.966;7.854;2023-04-03T02:05:56;5.90;99.90
3528;DHT22;1778;47.966;7.854;2023-04-03T02:06:58;5.80;99.90
3528;DHT22;1778;47.966;7.854;2023-04-03T02:08:00;5.70;99.90
3528;DHT22;1778;47.966;7.854;2023-04-03T02:09:03;5.80;99.90
3528;DHT22;1778;47.966;7.854;2023-04-03T02:10:04;5.70;99.90
3528;DHT22;1778;47.966;7.854;2023-04-03T02:11:06;5.70;99.90
3528;DHT22;1778;47.966;7.854;2023-04-03T02:12:09;5.70;99.90
3528;DHT22;1778;47.966;7.854;2023-04-03T02:13:10;5.70;99.90
3528;DHT22;1778;47.966;7.854;2023-04-03T02:14:12;5.70;99.90
3528;DHT22;1778;47.966;7.854;2023-04-03T02:15:15;5.60;99.90
3528;DHT22;1778;47.966;7.854;2023-04-03T02:16:16;5.60;99.90
3528;DHT22;1778;47.966;7.854;2023-04-03T02:17:18;5.60;99.90
3528;DHT22;1778;47.966;7.854;2023-04-03T02:18:21;5.60;99.90
3528;DHT22;1778;47.966;7.854;2023-04-03T02:19:23;5.60;99.90
3528;DHT22;1778;47.966;7.854;2023-04-03T02:20:25;5.60;99.90
3528;DHT22;1778;47.966;7.854;2023-04-03T02:21:27;5.50;99.90
3528;DHT22;1778;47.966;7.854;2023-04-03T02:22:29;5.50;99.90
3528;DHT22;1778;47.966;7.854;2023-04-03T02:23:31;5.50;99.90
3528;DHT22;1778;47.966;7.854;2023-04-03T02:24:33;5.50;99.90
3528;DHT22;1778;47.966;7.854;2023-04-03T02:25:34;5.40;99.90
3528;DHT22;1778;47.966;7.854;2023-04-03T02:26:39;5.50;99.90
3528;DHT22;1778;47.966;7.854;2023-04-03T02:27:40;5.40;99.90
3528;DHT22;1778;47.966;7.854;2023-04-03T02:28:43;5.40;99.90
3528;DHT22;1778;47.966;7.854;2023-04-03T02:29:46;5.40;99.90
3528;DHT22;1778;47.966;7.854;2023-04-03T02:30:47;5.40;99.90
3528;DHT22;1778;47.966;7.854;2023-04-03T02:31:49;5.40;99.90
3528;DHT22;1778;47.966;7.854;2023-04-03T02:32:52;5.30;99.90
3528;DHT22;1778;47.966;7.854;2023-04-03T02:33:54;5.30;99.90
3528;DHT22;1778;47.966;7.854;2023-04-03T02:34:56;5.30;99.90
3528;DHT22;1778;47.966;7.854;2023-04-03T02:35:59;5.20;99.90
3528;DHT22;1778;47.966;7.854;2023-04-03T02:37:01;5.20;99.90
3528;DHT22;1778;47.966;7.854;2023-04-03T02:38:02;5.20;99.90
3528;DHT22;1778;47.966;7.854;2023-04-03T02:39:04;5.10;99.90
3528;DHT22;1778;47.966;7.854;2023-04-03T02:40:07;5.10;99.90
3528;DHT22;1778;47.966;7.854;2023-04-03T02:41:10;5.10;99.90
3528;DHT22;1778;47.966;7.854;2023-04-03T02:42:12;5.20;99.90
3528;DHT22;1778;47.966;7.854;2023-04-03T02:43:14;5.20;99.90
3528;DHT22;1778;47.966;7.854;2023-04-03T02:44:16;5.20;99.90
3528;DHT22;1778;47.966;7.854;2023-04-03T02:45:20;5.20;99.90
3528;DHT22;1778;47.966;7.854;2023-04-03T02:46:22;5.20;99.90
3528;DHT22;1778;47.966;7.854;2023-04-03T02:47:24;5.30;99.90
3528;DHT22;1778;47.966;7.854;2023-04-03T02:48:25;5.30;99.90
3528;DHT22;1778;47.966;7.854;2023-04-03T02:49:28;5.30;99.90
3528;DHT22;1778;47.966;7.854;2023-04-03T02:50:29;5.30;99.90
3528;DHT22;1778;47.966;7.854;2023-04-03T02:51:31;5.20;99.90
3528;DHT22;1778;47.966;7.854;2023-04-03T02:52:34;5.10;99.90
3528;DHT22;1778;47.966;7.854;2023-04-03T02:53:36;5.20;99.90
3528;DHT22;1778;47.966;7.854;2023-04-03T02:54:43;5.20;99.90
3528;DHT22;1778;47.966;7.854;2023-04-03T02:55:45;5.10;99.90
3528;DHT22;1778;47.966;7.854;2023-04-03T02:56:47;5.10;99.90
3528;DHT22;1778;47.966;7.854;2023-04-03T02:57:49;5.00;99.90
3528;DHT22;1778;47.966;7.854;2023-04-03T02:58:50;5.00;99.90
3528;DHT22;1778;47.966;7.854;2023-04-03T02:59:52;5.00;99.90
3528;DHT22;1778;47.966;7.854;2023-04-03T03:00:54;5.00;99.90
3528;DHT22;1778;47.966;7.854;2023-04-03T03:01:56;5.00;99.90
3528;DHT22;1778;47.966;7.854;2023-04-03T03:02:57;5.00;99.90
3528;DHT22;1778;47.966;7.854;2023-04-03T03:04:00;5.00;99.90
3528;DHT22;1778;47.966;7.854;2023-04-03T03:05:01;5.00;99.90
3528;DHT22;1778;47.966;7.854;2023-04-03T03:06:08;5.00;99.90
3528;DHT22;1778;47.966;7.854;2023-04-03T03:07:10;5.00;99.90
3528;DHT22;1778;47.966;7.854;2023-04-03T03:08:12;5.00;99.90
3528;DHT22;1778;47.966;7.854;2023-04-03T03:09:13;5.00;99.90
3528;DHT22;1778;47.966;7.854;2023-04-03T03:10:16;5.00;99.90
3528;DHT22;1778;47.966;7.854;2023-04-03T03:11:19;5.10;99.90
3528;DHT22;1778;47.966;7.854;2023-04-03T03:12:21;5.10;99.90
3528;DHT22;1778;47.966;7.854;2023-04-03T03:13:24;5.10;99.90
3528;DHT22;1778;47.966;7.854;2023-04-03T03:14:25;5.10;99.90
3528;DHT22;1778;47.966;7.854;2023-04-03T03:15:27;5.10;99.90
3528;DHT22;1778;47.966;7.854;2023-04-03T03:16:28;5.10;99.90
3528;DHT22;1778;47.966;7.854;2023-04-03T03:17:30;5.10;99.90
3528;DHT22;1778;47.966;7.854;2023-04-03T03:18:32;5.10;99.90
3528;DHT22;1778;47.966;7.854;2023-04-03T03:19:34;5.20;99.90
3528;DHT22;1778;47.966;7.854;2023-04-03T03:20:35;5.20;99.90
3528;DHT22;1778;47.966;7.854;2023-04-03T03:21:37;5.20;99.90
3528;DHT22;1778;47.966;7.854;2023-04-03T03:22:39;5.20;99.90
3528;DHT22;1778;47.966;7.854;2023-04-03T03:23:40;5.20;99.90
3528;DHT22;1778;47.966;7.854;2023-04-03T03:24:42;5.20;99.90
3528;DHT22;1778;47.966;7.854;2023-04-03T03:25:43;5.30;99.90
3528;DHT22;1778;47.966;7.854;2023-04-03T03:26:45;5.30;99.90
3528;DHT22;1778;47.966;7.854;2023-04-03T03:27:46;5.30;99.90
3528;DHT22;1778;47.966;7.854;2023-04-03T03:28:48;5.30;99.90
3528;DHT22;1778;47.966;7.854;2023-04-03T03:29:49;5.30;99.90
3528;DHT22;1778;47.966;7.854;2023-04-03T03:30:51;5.30;99.90
3528;DHT22;1778;47.966;7.854;2023-04-03T03:31:53;5.30;99.90
3528;DHT22;1778;47.966;7.854;2023-04-03T03:32:55;5.30;99.90
3528;DHT22;1778;47.966;7.854;2023-04-03T03:33:56;5.30;99.90
3528;DHT22;1778;47.966;7.854;2023-04-03T03:34:58;5.30;99.90
3528;DHT22;1778;47.966;7.854;2023-04-03T03:36:00;5.30;99.90
3528;DHT22;1778;47.966;7.854;2023-04-03T03:37:01;5.30;99.90
3528;DHT22;1778;47.966;7.854;2023-04-03T03:38:03;5.30;99.90
3528;DHT22;1778;47.966;7.854;2023-04-03T03:39:05;5.30;99.90
3528;DHT22;1778;47.966;7.854;2023-04-03T03:40:07;5.40;99.90
3528;DHT22;1778;47.966;7.854;2023-04-03T03:41:10;5.40;99.90
3528;DHT22;1778;47.966;7.854;2023-04-03T03:42:12;5.40;99.90
3528;DHT22;1778;47.966;7.854;2023-04-03T03:43:15;5.30;99.90
3528;DHT22;1778;47.966;7.854;2023-04-03T03:44:17;5.40;99.90
3528;DHT22;1778;47.966;7.854;2023-04-03T03:45:18;5.40;99.90
3528;DHT22;1778;47.966;7.854;2023-04-03T03:46:20;5.40;99.90
3528;DHT22;1778;47.966;7.854;2023-04-03T03:47:21;5.40;99.90
3528;DHT22;1778;47.966;7.854;2023-04-03T03:48:24;5.40;99.90
3528;DHT22;1778;47.966;7.854;2023-04-03T03:49:26;5.40;99.90
3528;DHT22;1778;47.966;7.854;2023-04-03T03:50:27;5.40;99.90
3528;DHT22;1778;47.966;7.854;2023-04-03T03:51:29;5.40;99.90
3528;DHT22;1778;47.966;7.854;2023-04-03T03:52:31;5.40;99.90
3528;DHT22;1778;47.966;7.854;2023-04-03T03:53:33;5.40;99.90
3528;DHT22;1778;47.966;7.854;2023-04-03T03:54:39;5.40;99.90
3528;DHT22;1778;47.966;7.854;2023-04-03T03:55:41;5.40;99.90
3528;DHT22;1778;47.966;7.854;2023-04-03T03:56:43;5.50;99.90
3528;DHT22;1778;47.966;7.854;2023-04-03T03:57:45;5.50;99.90
3528;DHT22;1778;47.966;7.854;2023-04-03T03:58:47;5.50;99.90
3528;DHT22;1778;47.966;7.854;2023-04-03T03:59:48;5.50;99.90
3528;DHT22;1778;47.966;7.854;2023-04-03T04:00:52;5.50;99.90
3528;DHT22;1778;47.966;7.854;2023-04-03T04:01:53;5.60;99.90
3528;DHT22;1778;47.966;7.854;2023-04-03T04:02:56;5.60;99.90
3528;DHT22;1778;47.966;7.854;2023-04-03T04:04:00;5.60;99.90
3528;DHT22;1778;47.966;7.854;2023-04-03T04:05:04;5.50;99.90
3528;DHT22;1778;47.966;7.854;2023-04-03T04:06:06;5.50;99.90
3528;DHT22;1778;47.966;7.854;2023-04-03T04:07:08;5.50;99.90
3528;DHT22;1778;47.966;7.854;2023-04-03T04:08:10;5.50;99.90
3528;DHT22;1778;47.966;7.854;2023-04-03T04:09:12;5.50;99.90
3528;DHT22;1778;47.966;7.854;2023-04-03T04:10:14;5.50;99.90
3528;DHT22;1778;47.966;7.854;2023-04-03T04:11:17;5.50;99.90
3528;DHT22;1778;47.966;7.854;2023-04-03T04:12:20;5.50;99.90
3528;DHT22;1778;47.966;7.854;2023-04-03T04:13:23;5.50;99.90
3528;DHT22;1778;47.966;7.854;2023-04-03T04:14:25;5.50;99.90
3528;DHT22;1778;47.966;7.854;2023-04-03T04:15:26;5.50;99.90
3528;DHT22;1778;47.966;7.854;2023-04-03T04:16:29;5.50;99.90
3528;DHT22;1778;47.966;7.854;2023-04-03T04:17:36;5.50;99.90
3528;DHT22;1778;47.966;7.854;2023-04-03T04:18:40;5.50;99.90
3528;DHT22;1778;47.966;7.854;2023-04-03T04:19:41;5.50;99.90
3528;DHT22;1778;47.966;7.854;2023-04-03T04:20:45;5.50;99.90
3528;DHT22;1778;47.966;7.854;2023-04-03T04:21:48;5.50;99.90
3528;DHT22;1778;47.966;7.854;2023-04-03T04:22:50;5.50;99.90
3528;DHT22;1778;47.966;7.854;2023-04-03T04:23:53;5.50;99.90
3528;DHT22;1778;47.966;7.854;2023-04-03T04:24:55;5.50;99.90
3528;DHT22;1778;47.966;7.854;2023-04-03T04:25:57;5.50;99.90
3528;DHT22;1778;47.966;7.854;2023-04-03T04:27:00;5.50;99.90
3528;DHT22;1778;47.966;7.854;2023-04-03T04:28:02;5.50;99.90
3528;DHT22;1778;47.966;7.854;2023-04-03T04:29:03;5.50;99.90
3528;DHT22;1778;47.966;7.854;2023-04-03T04:30:08;5.50;99.90
3528;DHT22;1778;47.966;7.854;2023-04-03T04:31:10;5.50;99.90
3528;DHT22;1778;47.966;7.854;2023-04-03T04:32:12;5.50;99.90
3528;DHT22;1778;47.966;7.854;2023-04-03T04:33:14;5.50;99.90
3528;DHT22;1778;47.966;7.854;2023-04-03T04:34:17;5.50;99.90
3528;DHT22;1778;47.966;7.854;2023-04-03T04:35:19;5.50;99.90
3528;DHT22;1778;47.966;7.854;2023-04-03T04:36:23;5.50;99.90
3528;DHT22;1778;47.966;7.854;2023-04-03T04:37:24;5.50;99.90
3528;DHT22;1778;47.966;7.854;2023-04-03T04:38:26;5.50;99.90
3528;DHT22;1778;47.966;7.854;2023-04-03T04:39:28;5.50;99.90
3528;DHT22;1778;47.966;7.854;2023-04-03T04:40:31;5.50;99.90
3528;DHT22;1778;47.966;7.854;2023-04-03T04:41:33;5.50;99.90
3528;DHT22;1778;47.966;7.854;2023-04-03T04:42:37;5.50;99.90
3528;DHT22;1778;47.966;7.854;2023-04-03T04:43:40;5.50;99.90
3528;DHT22;1778;47.966;7.854;2023-04-03T04:44:43;5.50;99.90
3528;DHT22;1778;47.966;7.854;2023-04-03T04:45:47;5.50;99.90
3528;DHT22;1778;47.966;7.854;2023-04-03T04:46:52;5.40;99.90
3528;DHT22;1778;47.966;7.854;2023-04-03T04:47:57;5.50;99.90
3528;DHT22;1778;47.966;7.854;2023-04-03T04:48:59;5.40;99.90
3528;DHT22;1778;47.966;7.854;2023-04-03T04:50:04;5.40;99.90
3528;DHT22;1778;47.966;7.854;2023-04-03T04:51:07;5.40;99.90
3528;DHT22;1778;47.966;7.854;2023-04-03T04:52:10;5.50;99.90
3528;DHT22;1778;47.966;7.854;2023-04-03T04:53:14;5.50;99.90
3528;DHT22;1778;47.966;7.854;2023-04-03T04:54:16;5.50;99.90
3528;DHT22;1778;47.966;7.854;2023-04-03T04:55:19;5.40;99.90
3528;DHT22;1778;47.966;7.854;2023-04-03T04:56:23;5.40;99.90
3528;DHT22;1778;47.966;7.854;2023-04-03T04:57:28;5.50;99.90
3528;DHT22;1778;47.966;7.854;2023-04-03T04:58:32;5.50;99.90
3528;DHT22;1778;47.966;7.854;2023-04-03T04:59:36;5.50;99.90
3528;DHT22;1778;47.966;7.854;2023-04-03T05:00:39;5.50;99.90
3528;DHT22;1778;47.966;7.854;2023-04-03T05:01:41;5.50;99.90
3528;DHT22;1778;47.966;7.854;2023-04-03T05:02:48;5.60;99.90
3528;DHT22;1778;47.966;7.854;2023-04-03T05:03:52;5.50;99.90
3528;DHT22;1778;47.966;7.854;2023-04-03T05:04:55;5.50;99.90
3528;DHT22;1778;47.966;7.854;2023-04-03T05:06:01;5.50;99.90
3528;DHT22;1778;47.966;7.854;2023-04-03T05:07:05;5.50;99.90
3528;DHT22;1778;47.966;7.854;2023-04-03T05:08:09;5.50;99.90
3528;DHT22;1778;47.966;7.854;2023-04-03T05:09:14;5.50;99.90
3528;DHT22;1778;47.966;7.854;2023-04-03T05:10:17;5.40;99.90
3528;DHT22;1778;47.966;7.854;2023-04-03T05:11:20;5.40;99.90
3528;DHT22;1778;47.966;7.854;2023-04-03T05:12:25;5.30;99.90
3528;DHT22;1778;47.966;7.854;2023-04-03T05:13:32;5.30;99.90
3528;DHT22;1778;47.966;7.854;2023-04-03T05:14:33;5.30;99.90
3528;DHT22;1778;47.966;7.854;2023-04-03T05:15:39;5.30;99.90
3528;DHT22;1778;47.966;7.854;2023-04-03T05:16:41;5.30;99.90
3528;DHT22;1778;47.966;7.854;2023-04-03T05:17:43;5.30;99.90
3528;DHT22;1778;47.966;7.854;2023-04-03T05:18:47;5.30;99.90
3528;DHT22;1778;47.966;7.854;2023-04-03T05:19:53;5.20;99.90
3528;DHT22;1778;47.966;7.854;2023-04-03T05:20:56;5.20;99.90
3528;DHT22;1778;47.966;7.854;2023-04-03T05:21:59;5.10;99.90
3528;DHT22;1778;47.966;7.854;2023-04-03T05:23:03;5.10;99.90
3528;DHT22;1778;47.966;7.854;2023-04-03T05:24:07;5.10;99.90
3528;DHT22;1778;47.966;7.854;2023-04-03T05:25:14;5.10;99.90
3528;DHT22;1778;47.966;7.854;2023-04-03T05:26:17;5.20;99.90
3528;DHT22;1778;47.966;7.854;2023-04-03T05:27:21;5.20;99.90
3528;DHT22;1778;47.966;7.854;2023-04-03T05:28:28;5.20;99.90
3528;DHT22;1778;47.966;7.854;2023-04-03T05:29:29;5.20;99.90
3528;DHT22;1778;47.966;7.854;2023-04-03T05:30:33;5.20;99.90
3528;DHT22;1778;47.966;7.854;2023-04-03T05:31:36;5.10;99.90
3528;DHT22;1778;47.966;7.854;2023-04-03T05:32:41;5.00;99.90
3528;DHT22;1778;47.966;7.854;2023-04-03T05:33:51;5.10;99.90
3528;DHT22;1778;47.966;7.854;2023-04-03T05:34:53;5.10;99.90
3528;DHT22;1778;47.966;7.854;2023-04-03T05:35:55;5.10;99.90
3528;DHT22;1778;47.966;7.854;2023-04-03T05:37:01;5.10;99.90
3528;DHT22;1778;47.966;7.854;2023-04-03T05:38:05;5.10;99.90
3528;DHT22;1778;47.966;7.854;2023-04-03T05:39:07;5.10;99.90
3528;DHT22;1778;47.966;7.854;2023-04-03T05:40:12;5.20;99.90
3528;DHT22;1778;47.966;7.854;2023-04-03T05:41:17;5.20;99.90
3528;DHT22;1778;47.966;7.854;2023-04-03T05:42:20;5.20;99.90
3528;DHT22;1778;47.966;7.854;2023-04-03T05:43:21;5.30;99.90
3528;DHT22;1778;47.966;7.854;2023-04-03T05:44:24;5.30;99.90
3528;DHT22;1778;47.966;7.854;2023-04-03T05:45:27;5.20;99.90
3528;DHT22;1778;47.966;7.854;2023-04-03T05:46:31;5.20;99.90
3528;DHT22;1778;47.966;7.854;2023-04-03T05:47:37;5.20;99.90
3528;DHT22;1778;47.966;7.854;2023-04-03T05:48:40;5.20;99.90
3528;DHT22;1778;47.966;7.854;2023-04-03T05:49:44;5.30;99.90
3528;DHT22;1778;47.966;7.854;2023-04-03T05:50:49;5.20;99.90
3528;DHT22;1778;47.966;7.854;2023-04-03T05:51:56;5.10;99.90
3528;DHT22;1778;47.966;7.854;2023-04-03T05:53:02;5.10;99.90
3528;DHT22;1778;47.966;7.854;2023-04-03T05:54:20;5.20;99.90
3528;DHT22;1778;47.966;7.854;2023-04-03T05:55:27;5.20;99.90
3528;DHT22;1778;47.966;7.854;2023-04-03T05:56:28;5.10;99.90
3528;DHT22;1778;47.966;7.854;2023-04-03T05:57:30;5.10;99.90
3528;DHT22;1778;47.966;7.854;2023-04-03T05:58:32;5.10;99.90
3528;DHT22;1778;47.966;7.854;2023-04-03T05:59:34;5.10;99.90
3528;DHT22;1778;47.966;7.854;2023-04-03T06:00:36;5.20;99.90
3528;DHT22;1778;47.966;7.854;2023-04-03T06:01:38;5.10;99.90
3528;DHT22;1778;47.966;7.854;2023-04-03T06:02:40;5.10;99.90
3528;DHT22;1778;47.966;7.854;2023-04-03T06:03:49;5.10;99.90
3528;DHT22;1778;47.966;7.854;2023-04-03T06:04:51;5.20;99.90
3528;DHT22;1778;47.966;7.854;2023-04-03T06:05:54;5.20;99.90
3528;DHT22;1778;47.966;7.854;2023-04-03T06:06:58;5.30;99.90
3528;DHT22;1778;47.966;7.854;2023-04-03T06:08:00;5.30;99.90
3528;DHT22;1778;47.966;7.854;2023-04-03T06:09:02;5.40;99.90
3528;DHT22;1778;47.966;7.854;2023-04-03T06:10:04;5.40;99.90
3528;DHT22;1778;47.966;7.854;2023-04-03T06:11:06;5.50;99.90
3528;DHT22;1778;47.966;7.854;2023-04-03T06:12:10;5.50;99.90
3528;DHT22;1778;47.966;7.854;2023-04-03T06:13:12;5.60;99.90
3528;DHT22;1778;47.966;7.854;2023-04-03T06:14:14;5.60;99.90
3528;DHT22;1778;47.966;7.854;2023-04-03T06:15:16;5.70;99.90
3528;DHT22;1778;47.966;7.854;2023-04-03T06:16:18;5.70;99.90
3528;DHT22;1778;47.966;7.854;2023-04-03T06:17:20;5.80;99.90
3528;DHT22;1778;47.966;7.854;2023-04-03T06:18:22;5.90;99.90
3528;DHT22;1778;47.966;7.854;2023-04-03T06:19:24;5.90;99.90
3528;DHT22;1778;47.966;7.854;2023-04-03T06:20:29;6.00;99.90
3528;DHT22;1778;47.966;7.854;2023-04-03T06:21:32;6.00;99.90
3528;DHT22;1778;47.966;7.854;2023-04-03T06:22:35;6.00;99.90
3528;DHT22;1778;47.966;7.854;2023-04-03T06:23:37;5.90;99.90
3528;DHT22;1778;47.966;7.854;2023-04-03T06:24:39;5.90;99.90
3528;DHT22;1778;47.966;7.854;2023-04-03T06:25:41;6.00;99.90
3528;DHT22;1778;47.966;7.854;2023-04-03T06:26:43;6.00;99.90
3528;DHT22;1778;47.966;7.854;2023-04-03T06:27:45;6.10;99.90
3528;DHT22;1778;47.966;7.854;2023-04-03T06:28:47;6.20;99.90
3528;DHT22;1778;47.966;7.854;2023-04-03T06:29:48;6.30;99.90
3528;DHT22;1778;47.966;7.854;2023-04-03T06:30:50;6.30;99.90
3528;DHT22;1778;47.966;7.854;2023-04-03T06:31:52;6.30;99.90
3528;DHT22;1778;47.966;7.854;2023-04-03T06:32:54;6.40;99.90
3528;DHT22;1778;47.966;7.854;2023-04-03T06:33:56;6.40;99.90
3528;DHT22;1778;47.966;7.854;2023-04-03T06:34:58;6.50;99.90
3528;DHT22;1778;47.966;7.854;2023-04-03T06:36:02;6.50;99.90
3528;DHT22;1778;47.966;7.854;2023-04-03T06:37:05;6.50;99.90
3528;DHT22;1778;47.966;7.854;2023-04-03T06:38:06;6.60;99.90
3528;DHT22;1778;47.966;7.854;2023-04-03T06:39:29;6.60;99.90
3528;DHT22;1778;47.966;7.854;2023-04-03T06:40:30;6.60;99.90
3528;DHT22;1778;47.966;7.854;2023-04-03T06:41:32;6.60;99.90
3528;DHT22;1778;47.966;7.854;2023-04-03T06:42:36;6.70;99.90
3528;DHT22;1778;47.966;7.854;2023-04-03T06:43:44;6.70;99.90
3528;DHT22;1778;47.966;7.854;2023-04-03T06:44:46;6.70;99.90
3528;DHT22;1778;47.966;7.854;2023-04-03T06:45:48;6.70;99.90
3528;DHT22;1778;47.966;7.854;2023-04-03T06:46:49;6.80;99.90
3528;DHT22;1778;47.966;7.854;2023-04-03T06:47:51;6.80;99.90
3528;DHT22;1778;47.966;7.854;2023-04-03T06:48:54;6.80;99.90
3528;DHT22;1778;47.966;7.854;2023-04-03T06:49:56;6.80;99.90
3528;DHT22;1778;47.966;7.854;2023-04-03T06:50:59;6.90;99.90
3528;DHT22;1778;47.966;7.854;2023-04-03T06:52:01;6.90;99.90
3528;DHT22;1778;47.966;7.854;2023-04-03T06:53:03;6.90;99.90
3528;DHT22;1778;47.966;7.854;2023-04-03T06:54:06;6.90;99.90
3528;DHT22;1778;47.966;7.854;2023-04-03T06:55:08;6.90;99.90
3528;DHT22;1778;47.966;7.854;2023-04-03T06:56:11;6.90;99.90
3528;DHT22;1778;47.966;7.854;2023-04-03T06:57:12;6.90;99.90
3528;DHT22;1778;47.966;7.854;2023-04-03T06:58:14;7.00;99.90
3528;DHT22;1778;47.966;7.854;2023-04-03T06:59:16;7.00;99.90
3528;DHT22;1778;47.966;7.854;2023-04-03T07:00:18;7.10;99.90
3528;DHT22;1778;47.966;7.854;2023-04-03T07:01:21;7.10;99.90